sensor_id;sensor_type;location;lat;lon;timestamp;P1;durP1;ratioP1;P2;durP2;ratioP2
12469;SDS011;36499;46.484;13.832;2023-05-19T00:01:27;14.57;;;9.10;;
12469;SDS011;36499;46.484;13.832;2023-05-19T00:03:55;14.83;;;7.80;;
12469;SDS011;36499;46.484;13.832;2023-05-19T00:06:26;11.40;;;8.10;;
12469;SDS011;36499;46.484;13.832;2023-05-19T00:08:57;14.50;;;7.90;;
12469;SDS011;36499;46.484;13.832;2023-05-19T00:11:27;12.43;;;8.23;;
12469;SDS011;36499;46.484;13.832;2023-05-19T00:13:55;13.43;;;8.27;;
12469;SDS011;36499;46.484;13.832;2023-05-19T00:16:25;12.60;;;8.03;;
12469;SDS011;36499;46.484;13.832;2023-05-19T00:18:53;10.43;;;8.23;;
12469;SDS011;36499;46.484;13.832;2023-05-19T00:21:22;15.07;;;8.77;;
12469;SDS011;36499;46.484;13.832;2023-05-19T00:23:49;14.13;;;8.20;;
12469;SDS011;36499;46.484;13.832;2023-05-19T00:26:17;11.97;;;7.87;;
12469;SDS011;36499;46.484;13.832;2023-05-19T00:28:45;13.90;;;7.50;;
12469;SDS011;36499;46.484;13.832;2023-05-19T00:31:12;14.60;;;8.17;;
12469;SDS011;36499;46.484;13.832;2023-05-19T00:33:40;15.67;;;8.43;;
12469;SDS011;36499;46.484;13.832;2023-05-19T00:36:07;12.00;;;7.83;;
12469;SDS011;36499;46.484;13.832;2023-05-19T00:38:35;12.77;;;8.27;;
12469;SDS011;36499;46.484;13.832;2023-05-19T00:41:03;13.97;;;8.17;;
12469;SDS011;36499;46.484;13.832;2023-05-19T00:43:33;18.73;;;10.00;;
12469;SDS011;36499;46.484;13.832;2023-05-19T00:46:00;14.90;;;8.73;;
12469;SDS011;36499;46.484;13.832;2023-05-19T00:48:27;14.67;;;8.23;;
12469;SDS011;36499;46.484;13.832;2023-05-19T00:50:55;11.70;;;7.83;;
12469;SDS011;36499;46.484;13.832;2023-05-19T00:53:28;18.17;;;9.03;;
12469;SDS011;36499;46.484;13.832;2023-05-19T00:55:57;19.77;;;9.13;;
12469;SDS011;36499;46.484;13.832;2023-05-19T00:58:25;15.00;;;9.37;;
12469;SDS011;36499;46.484;13.832;2023-05-19T01:00:56;13.37;;;8.93;;
12469;SDS011;36499;46.484;13.832;2023-05-19T01:03:27;14.57;;;8.80;;
12469;SDS011;36499;46.484;13.832;2023-05-19T01:05:56;13.57;;;9.03;;
12469;SDS011;36499;46.484;13.832;2023-05-19T01:08:28;18.20;;;9.27;;
12469;SDS011;36499;46.484;13.832;2023-05-19T01:10:57;14.20;;;9.60;;
12469;SDS011;36499;46.484;13.832;2023-05-19T01:13:24;14.03;;;9.60;;
12469;SDS011;36499;46.484;13.832;2023-05-19T01:15:58;15.70;;;9.80;;
12469;SDS011;36499;46.484;13.832;2023-05-19T01:18:35;15.53;;;9.33;;
12469;SDS011;36499;46.484;13.832;2023-05-19T01:21:16;13.93;;;9.00;;
12469;SDS011;36499;46.484;13.832;2023-05-19T01:24:31;11.93;;;8.87;;
12469;SDS011;36499;46.484;13.832;2023-05-19T01:27:23;15.00;;;8.97;;
12469;SDS011;36499;46.484;13.832;2023-05-19T01:30:25;15.77;;;9.03;;
12469;SDS011;36499;46.484;13.832;2023-05-19T01:32:56;15.37;;;9.67;;
12469;SDS011;36499;46.484;13.832;2023-05-19T01:35:26;23.97;;;16.40;;
12469;SDS011;36499;46.484;13.832;2023-05-19T01:37:57;15.13;;;9.73;;
12469;SDS011;36499;46.484;13.832;2023-05-19T01:40:26;24.17;;;10.13;;
12469;SDS011;36499;46.484;13.832;2023-05-19T01:42:55;17.33;;;11.00;;
12469;SDS011;36499;46.484;13.832;2023-05-19T01:45:27;16.40;;;10.23;;
12469;SDS011;36499;46.484;13.832;2023-05-19T01:47:57;17.97;;;9.93;;
12469;SDS011;36499;46.484;13.832;2023-05-19T01:50:26;15.67;;;9.90;;
12469;SDS011;36499;46.484;13.832;2023-05-19T01:52:54;13.63;;;9.67;;
12469;SDS011;36499;46.484;13.832;2023-05-19T01:55:21;17.87;;;10.27;;
12469;SDS011;36499;46.484;13.832;2023-05-19T01:57:52;12.47;;;9.60;;
12469;SDS011;36499;46.484;13.832;2023-05-19T02:00:35;15.93;;;9.70;;
12469;SDS011;36499;46.484;13.832;2023-05-19T02:03:20;13.23;;;9.50;;
12469;SDS011;36499;46.484;13.832;2023-05-19T02:06:22;18.50;;;9.97;;
12469;SDS011;36499;46.484;13.832;2023-05-19T02:09:03;20.63;;;10.43;;
12469;SDS011;36499;46.484;13.832;2023-05-19T02:11:40;14.80;;;10.47;;
12469;SDS011;36499;46.484;13.832;2023-05-19T02:14:15;20.07;;;10.23;;
12469;SDS011;36499;46.484;13.832;2023-05-19T02:16:49;17.30;;;10.20;;
12469;SDS011;36499;46.484;13.832;2023-05-19T02:19:21;15.37;;;9.63;;
12469;SDS011;36499;46.484;13.832;2023-05-19T02:21:50;14.63;;;9.47;;
12469;SDS011;36499;46.484;13.832;2023-05-19T02:24:17;17.37;;;9.90;;
12469;SDS011;36499;46.484;13.832;2023-05-19T02:26:46;35.00;;;23.43;;
12469;SDS011;36499;46.484;13.832;2023-05-19T02:29:14;17.20;;;10.73;;
12469;SDS011;36499;46.484;13.832;2023-05-19T02:31:41;15.63;;;9.97;;
12469;SDS011;36499;46.484;13.832;2023-05-19T02:34:10;15.83;;;10.77;;
12469;SDS011;36499;46.484;13.832;2023-05-19T02:36:37;14.60;;;10.77;;
12469;SDS011;36499;46.484;13.832;2023-05-19T02:39:07;13.93;;;9.20;;
12469;SDS011;36499;46.484;13.832;2023-05-19T02:41:35;14.80;;;9.37;;
12469;SDS011;36499;46.484;13.832;2023-05-19T02:44:02;13.03;;;8.80;;
12469;SDS011;36499;46.484;13.832;2023-05-19T02:46:30;16.23;;;9.67;;
12469;SDS011;36499;46.484;13.832;2023-05-19T02:48:57;14.97;;;9.37;;
12469;SDS011;36499;46.484;13.832;2023-05-19T02:51:25;14.20;;;9.50;;
12469;SDS011;36499;46.484;13.832;2023-05-19T02:53:52;11.67;;;8.80;;
12469;SDS011;36499;46.484;13.832;2023-05-19T02:56:20;16.53;;;10.10;;
12469;SDS011;36499;46.484;13.832;2023-05-19T02:58:47;17.20;;;9.53;;
12469;SDS011;36499;46.484;13.832;2023-05-19T03:01:14;19.00;;;10.07;;
12469;SDS011;36499;46.484;13.832;2023-05-19T03:03:41;14.07;;;9.17;;
12469;SDS011;36499;46.484;13.832;2023-05-19T03:06:08;15.83;;;9.97;;
12469;SDS011;36499;46.484;13.832;2023-05-19T03:08:37;15.87;;;9.90;;
12469;SDS011;36499;46.484;13.832;2023-05-19T03:11:05;14.80;;;9.43;;
12469;SDS011;36499;46.484;13.832;2023-05-19T03:13:32;16.30;;;10.37;;
12469;SDS011;36499;46.484;13.832;2023-05-19T03:15:59;22.53;;;14.70;;
12469;SDS011;36499;46.484;13.832;2023-05-19T03:18:27;17.63;;;11.33;;
12469;SDS011;36499;46.484;13.832;2023-05-19T03:20:54;14.03;;;9.93;;
12469;SDS011;36499;46.484;13.832;2023-05-19T03:23:21;13.77;;;9.60;;
12469;SDS011;36499;46.484;13.832;2023-05-19T03:25:50;12.97;;;9.33;;
12469;SDS011;36499;46.484;13.832;2023-05-19T03:28:18;12.60;;;8.83;;
12469;SDS011;36499;46.484;13.832;2023-05-19T03:30:45;14.97;;;9.20;;
12469;SDS011;36499;46.484;13.832;2023-05-19T03:33:14;12.73;;;8.27;;
12469;SDS011;36499;46.484;13.832;2023-05-19T03:35:41;12.10;;;8.43;;
12469;SDS011;36499;46.484;13.832;2023-05-19T03:38:09;14.97;;;8.13;;
12469;SDS011;36499;46.484;13.832;2023-05-19T03:40:36;10.30;;;7.37;;
12469;SDS011;36499;46.484;13.832;2023-05-19T03:43:06;12.50;;;7.27;;
12469;SDS011;36499;46.484;13.832;2023-05-19T03:45:33;9.87;;;7.57;;
12469;SDS011;36499;46.484;13.832;2023-05-19T03:48:00;9.17;;;7.20;;
12469;SDS011;36499;46.484;13.832;2023-05-19T03:50:27;7.77;;;6.70;;
12469;SDS011;36499;46.484;13.832;2023-05-19T03:52:55;12.10;;;6.83;;
12469;SDS011;36499;46.484;13.832;2023-05-19T03:55:22;13.27;;;7.20;;
12469;SDS011;36499;46.484;13.832;2023-05-19T03:57:49;10.27;;;7.00;;
12469;SDS011;36499;46.484;13.832;2023-05-19T04:00:19;12.03;;;7.47;;
12469;SDS011;36499;46.484;13.832;2023-05-19T04:02:46;10.07;;;7.07;;
12469;SDS011;36499;46.484;13.832;2023-05-19T04:05:13;11.57;;;7.57;;
12469;SDS011;36499;46.484;13.832;2023-05-19T04:07:40;9.80;;;8.07;;
12469;SDS011;36499;46.484;13.832;2023-05-19T04:10:09;9.30;;;7.43;;
12469;SDS011;36499;46.484;13.832;2023-05-19T04:12:37;12.43;;;8.23;;
12469;SDS011;36499;46.484;13.832;2023-05-19T04:15:04;9.43;;;7.53;;
12469;SDS011;36499;46.484;13.832;2023-05-19T04:17:36;10.10;;;7.57;;
12469;SDS011;36499;46.484;13.832;2023-05-19T04:20:04;9.70;;;6.93;;
12469;SDS011;36499;46.484;13.832;2023-05-19T04:22:33;10.93;;;7.67;;
12469;SDS011;36499;46.484;13.832;2023-05-19T04:25:00;9.93;;;6.40;;
12469;SDS011;36499;46.484;13.832;2023-05-19T04:27:28;10.57;;;7.30;;
12469;SDS011;36499;46.484;13.832;2023-05-19T04:29:56;8.60;;;6.27;;
12469;SDS011;36499;46.484;13.832;2023-05-19T04:32:23;10.03;;;7.97;;
12469;SDS011;36499;46.484;13.832;2023-05-19T04:34:51;8.60;;;6.70;;
12469;SDS011;36499;46.484;13.832;2023-05-19T04:37:18;8.17;;;7.03;;
12469;SDS011;36499;46.484;13.832;2023-05-19T04:39:46;9.23;;;6.93;;
12469;SDS011;36499;46.484;13.832;2023-05-19T04:42:13;8.50;;;6.53;;
12469;SDS011;36499;46.484;13.832;2023-05-19T04:44:43;8.07;;;6.20;;
12469;SDS011;36499;46.484;13.832;2023-05-19T04:47:10;9.83;;;6.80;;
12469;SDS011;36499;46.484;13.832;2023-05-19T04:49:38;8.30;;;6.53;;
12469;SDS011;36499;46.484;13.832;2023-05-19T04:52:08;10.77;;;5.97;;
12469;SDS011;36499;46.484;13.832;2023-05-19T04:54:36;6.70;;;5.70;;
12469;SDS011;36499;46.484;13.832;2023-05-19T04:57:05;7.80;;;5.60;;
12469;SDS011;36499;46.484;13.832;2023-05-19T04:59:34;7.10;;;5.83;;
12469;SDS011;36499;46.484;13.832;2023-05-19T05:02:01;6.93;;;6.00;;
12469;SDS011;36499;46.484;13.832;2023-05-19T05:04:29;6.70;;;6.00;;
12469;SDS011;36499;46.484;13.832;2023-05-19T05:06:56;7.60;;;5.30;;
12469;SDS011;36499;46.484;13.832;2023-05-19T05:09:24;6.13;;;5.60;;
12469;SDS011;36499;46.484;13.832;2023-05-19T05:11:52;6.37;;;5.40;;
12469;SDS011;36499;46.484;13.832;2023-05-19T05:14:20;7.40;;;6.10;;
12469;SDS011;36499;46.484;13.832;2023-05-19T05:16:48;9.67;;;6.10;;
12469;SDS011;36499;46.484;13.832;2023-05-19T05:19:16;6.57;;;5.20;;
12469;SDS011;36499;46.484;13.832;2023-05-19T05:21:43;7.97;;;5.47;;
12469;SDS011;36499;46.484;13.832;2023-05-19T05:24:11;7.20;;;5.43;;
12469;SDS011;36499;46.484;13.832;2023-05-19T05:26:42;6.70;;;5.47;;
12469;SDS011;36499;46.484;13.832;2023-05-19T05:29:10;6.80;;;5.60;;
12469;SDS011;36499;46.484;13.832;2023-05-19T05:31:37;8.27;;;5.87;;
12469;SDS011;36499;46.484;13.832;2023-05-19T05:34:04;7.10;;;6.37;;
12469;SDS011;36499;46.484;13.832;2023-05-19T05:36:31;11.30;;;6.33;;
12469;SDS011;36499;46.484;13.832;2023-05-19T05:38:59;10.83;;;6.30;;
12469;SDS011;36499;46.484;13.832;2023-05-19T05:41:28;9.30;;;6.13;;
12469;SDS011;36499;46.484;13.832;2023-05-19T05:44:00;9.40;;;5.93;;
12469;SDS011;36499;46.484;13.832;2023-05-19T05:46:28;7.60;;;6.20;;
12469;SDS011;36499;46.484;13.832;2023-05-19T05:48:55;10.10;;;6.47;;
12469;SDS011;36499;46.484;13.832;2023-05-19T05:51:23;7.63;;;5.97;;
12469;SDS011;36499;46.484;13.832;2023-05-19T05:53:51;10.60;;;5.87;;
12469;SDS011;36499;46.484;13.832;2023-05-19T05:56:20;7.87;;;6.00;;
12469;SDS011;36499;46.484;13.832;2023-05-19T05:58:48;6.70;;;5.40;;
12469;SDS011;36499;46.484;13.832;2023-05-19T06:01:17;6.57;;;5.77;;
12469;SDS011;36499;46.484;13.832;2023-05-19T06:03:44;7.17;;;5.37;;
12469;SDS011;36499;46.484;13.832;2023-05-19T06:06:12;7.47;;;6.10;;
12469;SDS011;36499;46.484;13.832;2023-05-19T06:08:39;8.33;;;6.20;;
12469;SDS011;36499;46.484;13.832;2023-05-19T06:11:06;6.97;;;5.87;;
12469;SDS011;36499;46.484;13.832;2023-05-19T06:13:33;6.63;;;5.73;;
12469;SDS011;36499;46.484;13.832;2023-05-19T06:16:01;11.27;;;5.90;;
12469;SDS011;36499;46.484;13.832;2023-05-19T06:18:29;8.53;;;6.27;;
12469;SDS011;36499;46.484;13.832;2023-05-19T06:20:56;10.03;;;7.77;;
12469;SDS011;36499;46.484;13.832;2023-05-19T06:23:24;10.07;;;5.63;;
12469;SDS011;36499;46.484;13.832;2023-05-19T06:25:53;7.40;;;6.33;;
12469;SDS011;36499;46.484;13.832;2023-05-19T06:28:20;8.57;;;6.27;;
12469;SDS011;36499;46.484;13.832;2023-05-19T06:30:47;9.60;;;6.83;;
12469;SDS011;36499;46.484;13.832;2023-05-19T06:33:14;11.67;;;6.87;;
12469;SDS011;36499;46.484;13.832;2023-05-19T06:35:43;12.00;;;8.30;;
12469;SDS011;36499;46.484;13.832;2023-05-19T06:38:10;12.53;;;7.43;;
12469;SDS011;36499;46.484;13.832;2023-05-19T06:40:37;12.40;;;7.77;;
12469;SDS011;36499;46.484;13.832;2023-05-19T06:43:04;10.30;;;7.27;;
12469;SDS011;36499;46.484;13.832;2023-05-19T06:45:31;11.07;;;7.53;;
12469;SDS011;36499;46.484;13.832;2023-05-19T06:47:59;11.60;;;6.73;;
12469;SDS011;36499;46.484;13.832;2023-05-19T06:50:26;11.50;;;6.90;;
12469;SDS011;36499;46.484;13.832;2023-05-19T06:52:54;10.37;;;7.13;;
12469;SDS011;36499;46.484;13.832;2023-05-19T06:55:22;10.53;;;7.27;;
12469;SDS011;36499;46.484;13.832;2023-05-19T06:57:49;11.47;;;7.30;;
12469;SDS011;36499;46.484;13.832;2023-05-19T07:00:16;10.07;;;7.37;;
12469;SDS011;36499;46.484;13.832;2023-05-19T07:02:44;9.33;;;7.27;;
12469;SDS011;36499;46.484;13.832;2023-05-19T07:05:11;9.43;;;6.73;;
12469;SDS011;36499;46.484;13.832;2023-05-19T07:07:38;10.33;;;7.90;;
12469;SDS011;36499;46.484;13.832;2023-05-19T07:10:07;11.33;;;7.70;;
12469;SDS011;36499;46.484;13.832;2023-05-19T07:12:35;7.90;;;6.87;;
12469;SDS011;36499;46.484;13.832;2023-05-19T07:15:02;8.60;;;7.40;;
12469;SDS011;36499;46.484;13.832;2023-05-19T07:17:30;8.40;;;6.40;;
12469;SDS011;36499;46.484;13.832;2023-05-19T07:19:57;9.40;;;6.73;;
12469;SDS011;36499;46.484;13.832;2023-05-19T07:22:25;9.00;;;7.27;;
12469;SDS011;36499;46.484;13.832;2023-05-19T07:24:52;9.33;;;6.97;;
12469;SDS011;36499;46.484;13.832;2023-05-19T07:27:22;10.53;;;7.13;;
12469;SDS011;36499;46.484;13.832;2023-05-19T07:29:49;9.27;;;6.97;;
12469;SDS011;36499;46.484;13.832;2023-05-19T07:32:16;9.40;;;6.77;;
12469;SDS011;36499;46.484;13.832;2023-05-19T07:34:43;7.43;;;6.13;;
12469;SDS011;36499;46.484;13.832;2023-05-19T07:37:10;16.87;;;7.17;;
12469;SDS011;36499;46.484;13.832;2023-05-19T07:39:37;8.20;;;6.50;;
12469;SDS011;36499;46.484;13.832;2023-05-19T07:42:05;8.17;;;5.80;;
12469;SDS011;36499;46.484;13.832;2023-05-19T07:44:33;9.70;;;6.47;;
12469;SDS011;36499;46.484;13.832;2023-05-19T07:47:00;10.30;;;7.00;;
12469;SDS011;36499;46.484;13.832;2023-05-19T07:49:27;9.13;;;6.80;;
12469;SDS011;36499;46.484;13.832;2023-05-19T07:51:54;25.40;;;10.47;;
12469;SDS011;36499;46.484;13.832;2023-05-19T07:54:22;11.80;;;7.23;;
12469;SDS011;36499;46.484;13.832;2023-05-19T07:56:49;11.87;;;7.17;;
12469;SDS011;36499;46.484;13.832;2023-05-19T07:59:16;9.23;;;7.00;;
12469;SDS011;36499;46.484;13.832;2023-05-19T08:01:44;8.80;;;7.10;;
12469;SDS011;36499;46.484;13.832;2023-05-19T08:04:11;8.67;;;6.90;;
12469;SDS011;36499;46.484;13.832;2023-05-19T08:06:38;8.27;;;6.73;;
12469;SDS011;36499;46.484;13.832;2023-05-19T08:09:06;8.10;;;6.17;;
12469;SDS011;36499;46.484;13.832;2023-05-19T08:11:33;10.20;;;6.57;;
12469;SDS011;36499;46.484;13.832;2023-05-19T08:14:01;11.00;;;6.57;;
12469;SDS011;36499;46.484;13.832;2023-05-19T08:16:28;9.27;;;6.63;;
12469;SDS011;36499;46.484;13.832;2023-05-19T08:18:56;10.40;;;6.47;;
12469;SDS011;36499;46.484;13.832;2023-05-19T08:21:26;7.40;;;6.40;;
12469;SDS011;36499;46.484;13.832;2023-05-19T08:23:53;9.53;;;6.87;;
12469;SDS011;36499;46.484;13.832;2023-05-19T08:26:21;7.53;;;6.57;;
12469;SDS011;36499;46.484;13.832;2023-05-19T08:28:48;8.23;;;5.97;;
12469;SDS011;36499;46.484;13.832;2023-05-19T08:31:15;8.33;;;6.47;;
12469;SDS011;36499;46.484;13.832;2023-05-19T08:33:42;9.33;;;6.43;;
12469;SDS011;36499;46.484;13.832;2023-05-19T08:36:11;8.13;;;6.03;;
12469;SDS011;36499;46.484;13.832;2023-05-19T08:38:39;9.70;;;6.50;;
12469;SDS011;36499;46.484;13.832;2023-05-19T08:41:06;6.87;;;6.13;;
12469;SDS011;36499;46.484;13.832;2023-05-19T08:43:33;8.63;;;6.30;;
12469;SDS011;36499;46.484;13.832;2023-05-19T08:46:00;7.83;;;6.20;;
12469;SDS011;36499;46.484;13.832;2023-05-19T08:48:30;8.63;;;6.57;;
12469;SDS011;36499;46.484;13.832;2023-05-19T08:51:02;10.27;;;5.90;;
12469;SDS011;36499;46.484;13.832;2023-05-19T08:53:44;8.83;;;6.30;;
12469;SDS011;36499;46.484;13.832;2023-05-19T08:56:17;8.03;;;5.70;;
12469;SDS011;36499;46.484;13.832;2023-05-19T08:58:48;9.57;;;6.13;;
12469;SDS011;36499;46.484;13.832;2023-05-19T09:01:16;7.10;;;5.93;;
12469;SDS011;36499;46.484;13.832;2023-05-19T09:03:45;10.17;;;6.70;;
12469;SDS011;36499;46.484;13.832;2023-05-19T09:06:14;7.87;;;6.10;;
12469;SDS011;36499;46.484;13.832;2023-05-19T09:08:42;6.83;;;5.50;;
12469;SDS011;36499;46.484;13.832;2023-05-19T09:11:11;13.07;;;6.30;;
12469;SDS011;36499;46.484;13.832;2023-05-19T09:13:38;7.50;;;5.70;;
12469;SDS011;36499;46.484;13.832;2023-05-19T09:16:06;9.70;;;5.57;;
12469;SDS011;36499;46.484;13.832;2023-05-19T09:18:33;6.63;;;5.40;;
12469;SDS011;36499;46.484;13.832;2023-05-19T09:21:04;7.27;;;5.80;;
12469;SDS011;36499;46.484;13.832;2023-05-19T09:23:33;10.13;;;6.03;;
12469;SDS011;36499;46.484;13.832;2023-05-19T09:26:01;8.33;;;5.90;;
12469;SDS011;36499;46.484;13.832;2023-05-19T09:28:32;8.00;;;5.70;;
12469;SDS011;36499;46.484;13.832;2023-05-19T09:31:01;7.80;;;6.07;;
12469;SDS011;36499;46.484;13.832;2023-05-19T09:33:31;7.97;;;6.03;;
12469;SDS011;36499;46.484;13.832;2023-05-19T09:36:00;6.77;;;5.87;;
12469;SDS011;36499;46.484;13.832;2023-05-19T09:38:30;9.73;;;6.50;;
12469;SDS011;36499;46.484;13.832;2023-05-19T09:40:59;10.30;;;5.90;;
12469;SDS011;36499;46.484;13.832;2023-05-19T09:43:26;8.23;;;5.20;;
12469;SDS011;36499;46.484;13.832;2023-05-19T09:45:54;9.10;;;5.30;;
12469;SDS011;36499;46.484;13.832;2023-05-19T09:48:25;7.83;;;5.57;;
12469;SDS011;36499;46.484;13.832;2023-05-19T09:50:52;8.70;;;5.73;;
12469;SDS011;36499;46.484;13.832;2023-05-19T09:53:21;36.60;;;6.10;;
12469;SDS011;36499;46.484;13.832;2023-05-19T09:55:50;15.73;;;6.00;;
12469;SDS011;36499;46.484;13.832;2023-05-19T09:58:23;8.50;;;6.07;;
12469;SDS011;36499;46.484;13.832;2023-05-19T10:00:50;38.40;;;7.30;;
12469;SDS011;36499;46.484;13.832;2023-05-19T10:03:19;7.50;;;5.87;;
12469;SDS011;36499;46.484;13.832;2023-05-19T10:05:48;7.73;;;5.43;;
12469;SDS011;36499;46.484;13.832;2023-05-19T10:08:16;6.17;;;5.57;;
12469;SDS011;36499;46.484;13.832;2023-05-19T10:10:44;9.33;;;5.23;;
12469;SDS011;36499;46.484;13.832;2023-05-19T10:13:12;6.87;;;5.50;;
12469;SDS011;36499;46.484;13.832;2023-05-19T10:15:42;6.10;;;5.10;;
12469;SDS011;36499;46.484;13.832;2023-05-19T10:18:12;7.10;;;5.37;;
12469;SDS011;36499;46.484;13.832;2023-05-19T10:20:43;5.80;;;5.03;;
12469;SDS011;36499;46.484;13.832;2023-05-19T10:23:12;8.40;;;5.67;;
12469;SDS011;36499;46.484;13.832;2023-05-19T10:25:40;10.73;;;6.43;;
12469;SDS011;36499;46.484;13.832;2023-05-19T10:28:10;7.47;;;5.83;;
12469;SDS011;36499;46.484;13.832;2023-05-19T10:30:44;9.37;;;5.87;;
12469;SDS011;36499;46.484;13.832;2023-05-19T10:33:16;6.77;;;5.23;;
12469;SDS011;36499;46.484;13.832;2023-05-19T10:35:58;8.17;;;5.77;;
12469;SDS011;36499;46.484;13.832;2023-05-19T10:38:41;7.67;;;6.07;;
12469;SDS011;36499;46.484;13.832;2023-05-19T10:41:16;9.60;;;6.07;;
12469;SDS011;36499;46.484;13.832;2023-05-19T10:43:53;9.93;;;7.20;;
12469;SDS011;36499;46.484;13.832;2023-05-19T10:46:35;10.60;;;6.90;;
12469;SDS011;36499;46.484;13.832;2023-05-19T10:49:05;11.87;;;8.13;;
12469;SDS011;36499;46.484;13.832;2023-05-19T10:51:33;10.87;;;7.17;;
12469;SDS011;36499;46.484;13.832;2023-05-19T10:54:01;9.93;;;6.80;;
12469;SDS011;36499;46.484;13.832;2023-05-19T10:56:32;10.43;;;7.20;;
12469;SDS011;36499;46.484;13.832;2023-05-19T10:59:00;12.43;;;7.43;;
12469;SDS011;36499;46.484;13.832;2023-05-19T11:01:29;11.47;;;7.03;;
12469;SDS011;36499;46.484;13.832;2023-05-19T11:04:03;9.90;;;6.90;;
12469;SDS011;36499;46.484;13.832;2023-05-19T11:06:32;8.83;;;6.57;;
12469;SDS011;36499;46.484;13.832;2023-05-19T11:09:08;10.77;;;6.93;;
12469;SDS011;36499;46.484;13.832;2023-05-19T11:11:45;13.20;;;7.20;;
12469;SDS011;36499;46.484;13.832;2023-05-19T11:14:14;11.80;;;7.03;;
12469;SDS011;36499;46.484;13.832;2023-05-19T11:16:45;11.27;;;6.70;;
12469;SDS011;36499;46.484;13.832;2023-05-19T11:19:18;11.80;;;7.33;;
12469;SDS011;36499;46.484;13.832;2023-05-19T11:21:50;8.00;;;6.27;;
12469;SDS011;36499;46.484;13.832;2023-05-19T11:24:31;8.50;;;6.73;;
12469;SDS011;36499;46.484;13.832;2023-05-19T11:29:44;8.17;;;5.63;;
12469;SDS011;36499;46.484;13.832;2023-05-19T11:32:13;7.30;;;5.63;;
12469;SDS011;36499;46.484;13.832;2023-05-19T11:34:42;8.20;;;6.17;;
12469;SDS011;36499;46.484;13.832;2023-05-19T11:37:10;7.40;;;5.33;;
12469;SDS011;36499;46.484;13.832;2023-05-19T11:39:38;6.93;;;4.87;;
12469;SDS011;36499;46.484;13.832;2023-05-19T11:42:05;7.80;;;5.27;;
12469;SDS011;36499;46.484;13.832;2023-05-19T11:44:33;7.83;;;5.27;;
12469;SDS011;36499;46.484;13.832;2023-05-19T11:47:02;4.50;;;3.43;;
12469;SDS011;36499;46.484;13.832;2023-05-19T11:49:30;6.37;;;4.40;;
12469;SDS011;36499;46.484;13.832;2023-05-19T11:51:59;8.10;;;5.50;;
12469;SDS011;36499;46.484;13.832;2023-05-19T11:54:31;6.63;;;4.87;;
12469;SDS011;36499;46.484;13.832;2023-05-19T11:57:00;4.40;;;3.33;;
12469;SDS011;36499;46.484;13.832;2023-05-19T11:59:29;4.03;;;3.60;;
12469;SDS011;36499;46.484;13.832;2023-05-19T12:01:59;4.73;;;3.40;;
12469;SDS011;36499;46.484;13.832;2023-05-19T12:04:29;6.87;;;2.87;;
12469;SDS011;36499;46.484;13.832;2023-05-19T12:06:56;3.67;;;2.93;;
12469;SDS011;36499;46.484;13.832;2023-05-19T12:09:25;2.73;;;2.10;;
12469;SDS011;36499;46.484;13.832;2023-05-19T12:11:54;2.37;;;2.00;;
12469;SDS011;36499;46.484;13.832;2023-05-19T12:14:21;3.23;;;2.10;;
12469;SDS011;36499;46.484;13.832;2023-05-19T12:16:51;2.67;;;2.27;;
12469;SDS011;36499;46.484;13.832;2023-05-19T12:19:18;2.60;;;2.40;;
12469;SDS011;36499;46.484;13.832;2023-05-19T12:21:49;2.40;;;2.20;;
12469;SDS011;36499;46.484;13.832;2023-05-19T12:24:17;2.43;;;2.00;;
12469;SDS011;36499;46.484;13.832;2023-05-19T12:26:46;2.47;;;2.27;;
12469;SDS011;36499;46.484;13.832;2023-05-19T12:29:14;2.40;;;2.20;;
12469;SDS011;36499;46.484;13.832;2023-05-19T12:31:41;2.60;;;2.40;;
12469;SDS011;36499;46.484;13.832;2023-05-19T12:34:12;2.80;;;1.80;;
12469;SDS011;36499;46.484;13.832;2023-05-19T12:36:39;2.27;;;2.07;;
12469;SDS011;36499;46.484;13.832;2023-05-19T12:39:06;4.60;;;2.47;;
12469;SDS011;36499;46.484;13.832;2023-05-19T12:41:35;2.87;;;2.40;;
12469;SDS011;36499;46.484;13.832;2023-05-19T12:44:13;3.30;;;2.10;;
12469;SDS011;36499;46.484;13.832;2023-05-19T12:46:42;2.07;;;1.90;;
12469;SDS011;36499;46.484;13.832;2023-05-19T12:49:09;2.93;;;1.90;;
12469;SDS011;36499;46.484;13.832;2023-05-19T12:51:36;3.60;;;2.00;;
12469;SDS011;36499;46.484;13.832;2023-05-19T12:54:04;2.33;;;2.10;;
12469;SDS011;36499;46.484;13.832;2023-05-19T12:56:31;2.90;;;1.90;;
12469;SDS011;36499;46.484;13.832;2023-05-19T12:58:59;3.27;;;2.67;;
12469;SDS011;36499;46.484;13.832;2023-05-19T13:01:28;2.00;;;1.80;;
12469;SDS011;36499;46.484;13.832;2023-05-19T13:03:55;2.17;;;1.90;;
12469;SDS011;36499;46.484;13.832;2023-05-19T13:06:22;2.80;;;1.97;;
12469;SDS011;36499;46.484;13.832;2023-05-19T13:08:49;2.07;;;1.87;;
12469;SDS011;36499;46.484;13.832;2023-05-19T13:11:16;3.03;;;2.07;;
12469;SDS011;36499;46.484;13.832;2023-05-19T13:13:44;7.37;;;3.47;;
12469;SDS011;36499;46.484;13.832;2023-05-19T13:16:11;7.17;;;5.10;;
12469;SDS011;36499;46.484;13.832;2023-05-19T13:18:39;2.93;;;2.57;;
12469;SDS011;36499;46.484;13.832;2023-05-19T13:21:06;3.20;;;2.67;;
12469;SDS011;36499;46.484;13.832;2023-05-19T13:23:34;3.13;;;2.70;;
12469;SDS011;36499;46.484;13.832;2023-05-19T13:26:01;2.80;;;2.60;;
12469;SDS011;36499;46.484;13.832;2023-05-19T13:28:30;6.27;;;5.17;;
12469;SDS011;36499;46.484;13.832;2023-05-19T13:30:57;3.70;;;3.00;;
12469;SDS011;36499;46.484;13.832;2023-05-19T13:33:24;6.00;;;5.40;;
12469;SDS011;36499;46.484;13.832;2023-05-19T13:35:53;12.10;;;7.87;;
12469;SDS011;36499;46.484;13.832;2023-05-19T13:38:20;6.30;;;4.73;;
12469;SDS011;36499;46.484;13.832;2023-05-19T13:40:47;6.23;;;5.63;;
12469;SDS011;36499;46.484;13.832;2023-05-19T13:43:14;9.20;;;8.27;;
12469;SDS011;36499;46.484;13.832;2023-05-19T13:45:41;7.60;;;6.97;;
12469;SDS011;36499;46.484;13.832;2023-05-19T13:48:09;3.50;;;3.00;;
12469;SDS011;36499;46.484;13.832;2023-05-19T13:50:36;6.23;;;3.33;;
12469;SDS011;36499;46.484;13.832;2023-05-19T13:53:04;4.53;;;2.73;;
12469;SDS011;36499;46.484;13.832;2023-05-19T13:55:32;5.80;;;2.87;;
12469;SDS011;36499;46.484;13.832;2023-05-19T13:57:59;4.77;;;3.10;;
12469;SDS011;36499;46.484;13.832;2023-05-19T14:00:26;3.13;;;2.83;;
12469;SDS011;36499;46.484;13.832;2023-05-19T14:02:53;3.00;;;2.70;;
12469;SDS011;36499;46.484;13.832;2023-05-19T14:05:20;4.70;;;2.80;;
12469;SDS011;36499;46.484;13.832;2023-05-19T14:07:47;2.93;;;2.60;;
12469;SDS011;36499;46.484;13.832;2023-05-19T14:10:16;4.43;;;3.37;;
12469;SDS011;36499;46.484;13.832;2023-05-19T14:12:43;5.03;;;4.27;;
12469;SDS011;36499;46.484;13.832;2023-05-19T14:15:10;5.87;;;3.10;;
12469;SDS011;36499;46.484;13.832;2023-05-19T14:17:37;5.43;;;2.90;;
12469;SDS011;36499;46.484;13.832;2023-05-19T14:20:04;4.57;;;3.13;;
12469;SDS011;36499;46.484;13.832;2023-05-19T14:22:34;4.30;;;3.10;;
12469;SDS011;36499;46.484;13.832;2023-05-19T14:25:01;4.37;;;3.03;;
12469;SDS011;36499;46.484;13.832;2023-05-19T14:27:30;3.77;;;3.33;;
12469;SDS011;36499;46.484;13.832;2023-05-19T14:29:57;7.10;;;3.60;;
12469;SDS011;36499;46.484;13.832;2023-05-19T14:32:24;3.63;;;3.30;;
12469;SDS011;36499;46.484;13.832;2023-05-19T14:34:51;7.97;;;5.47;;
12469;SDS011;36499;46.484;13.832;2023-05-19T14:37:18;3.20;;;2.83;;
12469;SDS011;36499;46.484;13.832;2023-05-19T14:39:45;4.57;;;4.00;;
12469;SDS011;36499;46.484;13.832;2023-05-19T14:42:12;8.27;;;4.47;;